Vista Casco antiguo Xert more information Vista Casco antiguo Xert


Thunder radar more information blitzortung!


Rain radar  rain snow radar


Visita nuestra red de sitios de meteo:

Template documentation
and downloads

El Tiempo en XertWeb Principal

Meteotemplate: El tiempo en XertPlantilla Meteotemplate

Dashboard34: El tiempo en XertPlantilla V34

GraphWeather: El tiempo en XertPlantilla GraphWeather



No se requiere una conciencia particular del clima.    No hay advertencias meteorologicas.

Informes METAR proximidad

   
LEBL - Barcelona
Actualización: 06-03-2021 08:30
Parcialmente nublado  
Parcialmente nublado  
   Viento: ENE 16.7 km/h
Viento: ENE 16.7 km/h
Temperatura: 13°C
Punto de rocío: 8°C
Humedad relativa: 72%
Presión: 1022 hPa
Nubes: Parcialmente nublado
Visibilidad: 9 km
detalles de la nube: Parcialmente nublado 2200 ft
LEBL 060730Z 07009KT 9000 BKN022 13/08 Q1022 NOSIG
LEVC - Valencia
Actualización: 06-03-2021 08:30
Nubes dispersas  
Nubes dispersas  
   Viento: NO 9.3 km/h
Viento: NO 9.3 km/h
Temperatura: 9°C
Térmica: 8°C
Punto de rocío: 7°C
Humedad relativa: 87%
Presión: 1022 hPa
Nubes: Nubes dispersas
Visibilidad: More than 10 km
detalles de la nube: Nubes dispersas 4500 ft
LEVC 060730Z 32005KT 9999 FEW045 09/07 Q1022 NOSIG
LEMD - Madrid
Actualización: 06-03-2021 08:30
Parcialmente nublado  
Parcialmente nublado  
   Viento: varía 1.9 km/h
Viento: varía 1.9 km/h
Temperatura: 8°C
Punto de rocío: 6°C
Humedad relativa: 87%
Presión: 1020 hPa
Nubes: Parcialmente nublado
Visibilidad: More than 10 km
detalles de la nube: Parcialmente nublado 6500 ft
LEMD 060730Z VRB01KT 9999 BKN065 08/06 Q1020 NOSIG
LEAL - Alicante
Actualización: 06-03-2021 08:30
Claros  
Claros  
   Viento: North 13 km/h
Viento: North 13 km/h
Temperatura: 12°C
Punto de rocío: 7°C
Humedad relativa: 72%
Presión: 1020 hPa
Visibilidad: More than 10 km
detalles de la nube: Claros
LEAL 060730Z 01007KT CAVOK 12/07 Q1020 NOSIG
LEZG - Zaragoza
Actualización: 06-03-2021 08:30
Parcialmente nublado  
Parcialmente nublado  
   Viento: ENE 16.7 km/h
Viento: ENE 16.7 km/h
Temperatura: 9°C
Térmica: 7°C
Punto de rocío: 4°C
Humedad relativa: 71%
Presión: 1022 hPa
Nubes: Parcialmente nublado
Visibilidad: More than 10 km
detalles de la nube: Parcialmente nublado 6000 ft
LEZG 060730Z 29009KT 9999 BKN060 09/04 Q1022
LEPA - Baleares, Palma Mallorca
Actualización: 06-03-2021 08:30
Nubes dispersas  
Nubes dispersas  
   Viento: NNE 3.7 km/h
Viento: NNE 3.7 km/h
Temperatura: 8°C
Punto de rocío: 6°C
Humedad relativa: 87%
Presión: 1022 hPa
Nubes: Nubes dispersas
Visibilidad: More than 10 km
detalles de la nube: Nubes dispersas 1200 ft
LEPA 060730Z 03002KT 9999 FEW012 08/06 Q1022 NOSIG

Guión original por  Saratoga-weather.org Adaptado para la plantilla por  Weerstation Leuven

Te das cuenta de información de tiempo también en:

UK Metoffice

WeatherCloud

Weather Underground

Xert, Pla de la Font

AWEKAS

WeatherlinkIP

Citizen Weather Observer Program (CWOP)

HAMweather, WeatherForYou, PWS Weather

Equipo usamos:

Weather-station
Davis Vantage VUE

Weather-program
Davis Weatherlink.Com

Weather-server
My Computer

Proveedor
Hostinger

Davis Vantage VUE

Davis Weatherlink.Com

My Computer

Hostinger